Time,TemperatureF,DewpointF,PressureIn,WindDirection,WindDirectionDegrees,WindSpeedMPH,WindSpeedGustMPH,Humidity,HourlyPrecipIn,Conditions,Clouds,dailyrainin,SolarRadiationWatts/m^2,SoftwareType,DateUTC
2013-04-24 00:05:00,49.9,48.2,29.94,SSW,213,13.0,16.0,94,0.00,,,0.00,0,Wunderground v.1.15,2013-04-24 07:05:00,
2013-04-24 00:14:00,49.4,47.5,29.94,SSW,213,13.0,14.0,93,0.00,,,0.00,0,Wunderground v.1.15,2013-04-24 07:14:00,
2013-04-24 00:20:00,49.5,47.6,29.94,SSW,213,11.0,11.0,93,0.00,,,0.00,0,Wunderground v.1.15,2013-04-24 07:20:00,
2013-04-24 00:25:00,49.4,47.5,29.94,SSW,202,11.0,14.0,93,0.00,,,0.00,0,Wunderground v.1.15,2013-04-24 07:25:00,
2013-04-24 00:34:00,49.7,48.0,29.94,SW,218,12.0,13.0,94,0.00,,,0.00,0,Wunderground v.1.15,2013-04-24 07:34:00,
2013-04-24 00:40:00,49.7,48.0,29.95,SSW,208,11.0,11.0,94,0.00,,,0.00,0,Wunderground v.1.15,2013-04-24 07:40:00,
2013-04-24 00:45:00,49.8,48.1,29.94,WSW,254,10.0,11.0,94,0.00,,,0.00,0,Wunderground v.1.15,2013-04-24 07:45:00,
2013-04-24 00:55:00,49.3,47.4,29.95,SW,218,8.0,8.0,93,0.00,,,0.00,0,Wunderground v.1.15,2013-04-24 07:55:00,
2013-04-24 01:05:00,49.6,47.9,29.94,SSW,203,9.0,12.0,94,0.00,,,0.00,0,Wunderground v.1.15,2013-04-24 08:05:00,
2013-04-24 01:15:00,49.8,48.1,29.94,SW,230,8.0,10.0,94,0.00,,,0.00,0,Wunderground v.1.15,2013-04-24 08:15:00,
2013-04-24 01:20:00,49.5,47.8,29.94,SW,224,7.0,7.0,94,0.00,,,0.00,0,Wunderground v.1.15,2013-04-24 08:20:00,
2013-04-24 01:30:00,49.4,47.5,29.93,WSW,240,6.0,6.0,93,0.00,,,0.00,0,Wunderground v.1.15,2013-04-24 08:30:00,
2013-04-24 01:35:00,49.3,47.4,29.93,WSW,243,5.0,6.0,93,0.00,,,0.00,0,Wunderground v.1.15,2013-04-24 08:35:00,
2013-04-24 01:45:00,49.5,47.6,29.93,SW,230,5.0,6.0,93,0.00,,,0.00,0,Wunderground v.1.15,2013-04-24 08:45:00,
2013-04-24 01:55:00,49.4,47.5,29.93,SW,235,5.0,5.0,93,0.00,,,0.00,0,Wunderground v.1.15,2013-04-24 08:55:00,
2013-04-24 02:00:00,49.5,47.8,29.92,SW,222,5.0,6.0,94,0.00,,,0.00,0,Wunderground v.1.15,2013-04-24 09:00:00,
2013-04-24 02:10:00,49.5,47.8,29.92,WSW,255,5.0,5.0,94,0.00,,,0.00,0,Wunderground v.1.15,2013-04-24 09:10:00,
2013-04-24 02:15:00,49.4,47.5,29.92,West,259,4.0,6.0,93,0.00,,,0.00,0,Wunderground v.1.15,2013-04-24 09:15:00,
2013-04-24 02:20:00,49.3,47.4,29.92,WSW,250,5.0,7.0,93,0.00,,,0.00,0,Wunderground v.1.15,2013-04-24 09:20:00,
2013-04-24 02:25:00,49.3,47.4,29.91,SW,235,4.0,7.0,93,0.00,,,0.00,0,Wunderground v.1.15,2013-04-24 09:25:00,
2013-04-24 02:35:00,49.4,47.7,29.91,SW,222,4.0,8.0,94,0.00,,,0.00,0,Wunderground v.1.15,2013-04-24 09:35:00,
2013-04-24 02:40:00,49.5,47.8,29.91,SW,226,5.0,5.0,94,0.00,,,0.00,0,Wunderground v.1.15,2013-04-24 09:40:00,
2013-04-24 02:50:00,49.5,47.6,29.90,SW,230,5.0,5.0,93,0.00,,,0.00,0,Wunderground v.1.15,2013-04-24 09:50:00,
2013-04-24 02:55:00,49.5,47.6,29.90,WSW,240,5.0,5.0,93,0.00,,,0.00,0,Wunderground v.1.15,2013-04-24 09:55:00,
2013-04-24 03:05:00,49.4,47.5,29.90,WSW,243,2.0,5.0,93,0.00,,,0.00,0,Wunderground v.1.15,2013-04-24 10:05:00,
2013-04-24 03:15:00,49.5,47.6,29.90,WSW,242,2.0,3.0,93,0.00,,,0.00,0,Wunderground v.1.15,2013-04-24 10:15:00,
2013-04-24 03:25:00,49.6,47.7,29.90,WSW,243,1.0,1.0,93,0.00,,,0.00,0,Wunderground v.1.15,2013-04-24 10:25:00,
2013-04-24 03:30:00,49.7,47.8,29.90,WSW,243,1.0,1.0,93,0.00,,,0.00,0,Wunderground v.1.15,2013-04-24 10:30:00,
2013-04-24 03:35:00,49.7,47.8,29.90,WSW,243,2.0,4.0,93,0.00,,,0.00,0,Wunderground v.1.15,2013-04-24 10:35:00,
2013-04-24 03:45:00,49.6,47.7,29.90,WSW,242,0.0,2.0,93,0.00,,,0.00,0,Wunderground v.1.15,2013-04-24 10:45:00,
2013-04-24 03:55:00,49.5,47.3,29.90,WSW,242,1.0,2.0,92,0.00,,,0.00,0,Wunderground v.1.15,2013-04-24 10:55:00,
2013-04-24 04:05:00,49.4,47.2,29.90,WSW,242,0.0,1.0,92,0.00,,,0.00,0,Wunderground v.1.15,2013-04-24 11:05:00,
2013-04-24 04:10:00,49.4,47.5,29.89,WSW,242,0.0,2.0,93,0.00,,,0.00,0,Wunderground v.1.15,2013-04-24 11:10:00,
2013-04-24 04:15:00,49.9,48.0,29.89,SW,230,2.0,4.0,93,0.00,,,0.00,0,Wunderground v.1.15,2013-04-24 11:15:00,
2013-04-24 04:25:00,50.0,48.1,29.89,SW,226,2.0,3.0,93,0.00,,,0.00,0,Wunderground v.1.15,2013-04-24 11:25:00,
2013-04-24 04:35:00,49.9,48.0,29.89,SW,227,1.0,2.0,93,0.00,,,0.00,0,Wunderground v.1.15,2013-04-24 11:35:00,
2013-04-24 04:40:00,49.8,47.9,29.89,SW,227,1.0,1.0,93,0.00,,,0.00,0,Wunderground v.1.15,2013-04-24 11:40:00,
2013-04-24 04:50:00,49.7,47.8,29.89,SW,227,1.0,2.0,93,0.00,,,0.00,0,Wunderground v.1.15,2013-04-24 11:50:00,
2013-04-24 05:00:00,49.6,47.4,29.89,SW,226,1.0,2.0,92,0.00,,,0.00,0,Wunderground v.1.15,2013-04-24 12:00:00,
2013-04-24 05:05:00,49.5,47.6,29.89,SW,226,1.0,2.0,93,0.00,,,0.00,0,Wunderground v.1.15,2013-04-24 12:05:00,
2013-04-24 05:15:00,49.5,47.6,29.89,SW,226,2.0,3.0,93,0.00,,,0.00,0,Wunderground v.1.15,2013-04-24 12:15:00,
2013-04-24 05:25:00,49.4,47.5,29.89,SW,228,2.0,3.0,93,0.00,,,0.00,0,Wunderground v.1.15,2013-04-24 12:25:00,
2013-04-24 05:30:00,49.4,47.5,29.89,SW,227,1.0,1.0,93,0.00,,,0.00,0,Wunderground v.1.15,2013-04-24 12:30:00,
2013-04-24 05:40:00,49.3,47.4,29.89,SW,226,1.0,1.0,93,0.00,,,0.00,0,Wunderground v.1.15,2013-04-24 12:40:00,
2013-04-24 05:45:00,49.4,47.5,29.89,SSW,202,1.0,2.0,93,0.00,,,0.00,0,Wunderground v.1.15,2013-04-24 12:45:00,
2013-04-24 05:55:00,49.2,47.3,29.89,SSW,203,0.0,1.0,93,0.00,,,0.00,0,Wunderground v.1.15,2013-04-24 12:55:00,
2013-04-24 06:05:00,49.4,47.5,29.90,SSW,203,0.0,0.0,93,0.00,,,0.00,0,Wunderground v.1.15,2013-04-24 13:05:00,
2013-04-24 06:15:00,49.4,47.5,29.90,SSW,203,0.0,0.0,93,0.00,,,0.00,0,Wunderground v.1.15,2013-04-24 13:15:00,
2013-04-24 06:25:00,49.3,47.4,29.90,SSW,203,0.0,0.0,93,0.00,,,0.00,5,Wunderground v.1.15,2013-04-24 13:25:00,
2013-04-24 06:30:00,49.5,47.6,29.90,SSW,203,0.0,0.0,93,0.00,,,0.00,7,Wunderground v.1.15,2013-04-24 13:30:00,
2013-04-24 06:40:00,49.6,47.7,29.90,SSW,203,1.0,2.0,93,0.00,,,0.00,12,Wunderground v.1.15,2013-04-24 13:40:00,
2013-04-24 06:50:00,50.1,48.2,29.90,SSW,213,3.0,4.0,93,0.00,,,0.00,21,Wunderground v.1.15,2013-04-24 13:50:00,
2013-04-24 06:55:00,50.0,48.1,29.90,SSW,197,3.0,4.0,93,0.00,,,0.00,25,Wunderground v.1.15,2013-04-24 13:55:00,
2013-04-24 07:05:00,49.8,47.9,29.91,SSW,213,3.0,4.0,93,0.00,,,0.00,32,Wunderground v.1.15,2013-04-24 14:05:00,
2013-04-24 07:15:00,50.0,48.1,29.91,SW,227,2.0,4.0,93,0.00,,,0.00,44,Wunderground v.1.15,2013-04-24 14:15:00,
2013-04-24 07:25:00,49.8,47.9,29.91,SW,228,3.0,3.0,93,0.00,,,0.00,62,Wunderground v.1.15,2013-04-24 14:25:00,
2013-04-24 07:30:00,49.8,47.9,29.91,SW,229,3.0,3.0,93,0.00,,,0.00,56,Wunderground v.1.15,2013-04-24 14:30:00,
2013-04-24 07:40:00,49.9,48.0,29.91,SW,234,2.0,6.0,93,0.00,,,0.00,62,Wunderground v.1.15,2013-04-24 14:40:00,
2013-04-24 07:50:00,50.1,48.4,29.92,SSW,213,3.0,4.0,94,0.00,,,0.00,72,Wunderground v.1.15,2013-04-24 14:50:00,
2013-04-24 08:00:00,50.3,48.6,29.92,WSW,237,4.0,5.0,94,0.00,,,0.00,84,Wunderground v.1.15,2013-04-24 15:00:00,
2013-04-24 08:10:00,50.1,48.4,29.92,WSW,252,5.0,6.0,94,0.00,,,0.00,91,Wunderground v.1.15,2013-04-24 15:10:00,
2013-04-24 08:15:00,50.0,48.3,29.92,WSW,245,4.0,8.0,94,0.00,,,0.00,104,Wunderground v.1.15,2013-04-24 15:15:00,
2013-04-24 08:25:00,50.0,48.3,29.93,WSW,246,5.0,5.0,94,0.00,,,0.00,123,Wunderground v.1.15,2013-04-24 15:25:00,
2013-04-24 08:30:00,50.0,48.3,29.93,WSW,249,5.0,10.0,94,0.00,,,0.00,125,Wunderground v.1.15,2013-04-24 15:30:00,
2013-04-24 08:40:00,49.5,47.8,29.93,WSW,256,8.0,10.0,94,0.00,,,0.00,144,Wunderground v.1.15,2013-04-24 15:40:00,
2013-04-24 08:45:00,49.9,48.2,29.93,WSW,238,7.0,10.0,94,0.00,,,0.00,174,Wunderground v.1.15,2013-04-24 15:45:00,
2013-04-24 08:55:00,49.4,47.5,29.93,SW,224,8.0,8.0,93,0.00,,,0.00,192,Wunderground v.1.15,2013-04-24 15:55:00,
2013-04-24 09:00:00,49.8,48.1,29.93,SW,230,8.0,8.0,94,0.00,,,0.00,190,Wunderground v.1.15,2013-04-24 16:00:00,
2013-04-24 09:10:00,50.4,48.7,29.93,SSW,213,8.0,8.0,94,0.00,,,0.00,178,Wunderground v.1.15,2013-04-24 16:10:00,
2013-04-24 09:20:00,51.1,49.4,29.93,SSW,213,8.0,12.0,94,0.00,,,0.00,492,Wunderground v.1.15,2013-04-24 16:20:00,
2013-04-24 09:30:00,51.9,49.9,29.93,SW,228,8.0,8.0,93,0.00,,,0.00,527,Wunderground v.1.15,2013-04-24 16:30:00,
2013-04-24 09:35:00,52.1,49.8,29.93,SSW,200,8.0,8.0,92,0.00,,,0.00,534,Wunderground v.1.15,2013-04-24 16:35:00,
2013-04-24 09:45:00,52.5,49.9,29.93,SSW,213,6.0,8.0,91,0.00,,,0.00,561,Wunderground v.1.15,2013-04-24 16:45:00,
2013-04-24 09:55:00,52.7,49.8,29.93,SW,227,6.0,7.0,90,0.00,,,0.00,591,Wunderground v.1.15,2013-04-24 16:55:00,
2013-04-24 10:05:00,53.0,49.5,29.94,WSW,243,6.0,6.0,88,0.00,,,0.00,619,Wunderground v.1.15,2013-04-24 17:05:00,
2013-04-24 10:15:00,53.5,49.7,29.94,West,265,5.0,6.0,87,0.00,,,0.00,649,Wunderground v.1.15,2013-04-24 17:15:00,
2013-04-24 10:20:00,53.3,49.5,29.93,WSW,250,6.0,10.0,87,0.00,,,0.00,663,Wunderground v.1.15,2013-04-24 17:20:00,
2013-04-24 10:25:00,52.9,48.8,29.94,WSW,258,7.0,10.0,86,0.00,,,0.00,675,Wunderground v.1.15,2013-04-24 17:25:00,
2013-04-24 10:35:00,52.6,48.8,29.94,SW,229,8.0,10.0,87,0.00,,,0.00,701,Wunderground v.1.15,2013-04-24 17:35:00,
2013-04-24 10:45:00,52.8,48.7,29.94,WSW,253,8.0,9.0,86,0.00,,,0.00,724,Wunderground v.1.15,2013-04-24 17:45:00,
2013-04-24 10:50:00,53.0,48.9,29.94,WSW,257,8.0,8.0,86,0.00,,,0.00,737,Wunderground v.1.15,2013-04-24 17:50:00,
2013-04-24 11:00:00,52.8,48.7,29.94,WSW,245,9.0,9.0,86,0.00,,,0.00,761,Wunderground v.1.15,2013-04-24 18:00:00,
2013-04-24 11:05:00,52.7,48.6,29.94,West,264,9.0,9.0,86,0.00,,,0.00,773,Wunderground v.1.15,2013-04-24 18:05:00,
2013-04-24 11:15:00,53.0,48.6,29.94,WSW,246,9.0,11.0,85,0.00,,,0.00,793,Wunderground v.1.15,2013-04-24 18:15:00,
2013-04-24 11:25:00,53.5,49.1,29.94,West,274,9.0,11.0,85,0.00,,,0.00,812,Wunderground v.1.15,2013-04-24 18:25:00,
2013-04-24 11:35:00,53.6,49.2,29.94,West,264,9.0,9.0,85,0.00,,,0.00,831,Wunderground v.1.15,2013-04-24 18:35:00,
2013-04-24 11:40:00,53.8,49.1,29.95,WSW,252,8.0,12.0,84,0.00,,,0.00,840,Wunderground v.1.15,2013-04-24 18:40:00,
2013-04-24 11:50:00,54.1,48.7,29.94,SW,232,8.0,8.0,82,0.00,,,0.00,854,Wunderground v.1.15,2013-04-24 18:50:00,
2013-04-24 11:55:00,54.7,49.3,29.94,SW,226,6.0,8.0,82,0.00,,,0.00,863,Wunderground v.1.15,2013-04-24 18:55:00,
2013-04-24 12:05:00,55.0,49.3,29.94,WSW,255,7.0,10.0,81,0.00,,,0.00,879,Wunderground v.1.15,2013-04-24 19:05:00,
2013-04-24 12:15:00,55.7,49.3,29.94,SW,229,5.0,6.0,79,0.00,,,0.00,893,Wunderground v.1.15,2013-04-24 19:15:00,
2013-04-24 12:25:00,55.3,48.2,29.94,SSW,213,6.0,6.0,77,0.00,,,0.00,904,Wunderground v.1.15,2013-04-24 19:25:00,
2013-04-24 12:30:00,55.7,48.6,29.94,WSW,247,6.0,6.0,77,0.00,,,0.00,909,Wunderground v.1.15,2013-04-24 19:30:00,
2013-04-24 12:40:00,56.1,49.7,29.94,SSW,213,6.0,6.0,79,0.00,,,0.00,916,Wunderground v.1.15,2013-04-24 19:40:00,
2013-04-24 12:50:00,56.4,50.3,29.94,SSW,213,7.0,7.0,80,0.00,,,0.00,925,Wunderground v.1.15,2013-04-24 19:50:00,
2013-04-24 12:55:00,56.4,49.6,29.94,West,259,6.0,10.0,78,0.00,,,0.00,926,Wunderground v.1.15,2013-04-24 19:55:00,
2013-04-24 13:05:00,55.6,49.2,29.94,WSW,254,8.0,11.0,79,0.00,,,0.00,930,Wunderground v.1.15,2013-04-24 20:05:00,
2013-04-24 13:10:00,55.8,49.0,29.93,West,259,8.0,8.0,78,0.00,,,0.00,932,Wunderground v.1.15,2013-04-24 20:10:00,
2013-04-24 13:20:00,56.1,49.7,29.94,West,264,8.0,8.0,79,0.00,,,0.00,930,Wunderground v.1.15,2013-04-24 20:20:00,
2013-04-24 13:30:00,56.5,49.4,29.93,SW,232,7.0,7.0,77,0.00,,,0.00,932,Wunderground v.1.15,2013-04-24 20:30:00,
2013-04-24 13:35:00,56.9,49.4,29.93,WSW,252,7.0,7.0,76,0.00,,,0.00,932,Wunderground v.1.15,2013-04-24 20:35:00,
2013-04-24 13:40:00,56.8,49.7,29.93,WSW,254,8.0,8.0,77,0.00,,,0.00,930,Wunderground v.1.15,2013-04-24 20:40:00,
2013-04-24 13:50:00,56.8,49.3,29.93,West,269,9.0,9.0,76,0.00,,,0.00,926,Wunderground v.1.15,2013-04-24 20:50:00,
2013-04-24 14:00:00,56.7,49.6,29.93,WSW,253,11.0,11.0,77,0.00,,,0.00,921,Wunderground v.1.15,2013-04-24 21:00:00,
2013-04-24 14:05:00,57.0,49.5,29.92,WSW,255,11.0,11.0,76,0.00,,,0.00,918,Wunderground v.1.15,2013-04-24 21:05:00,
2013-04-24 14:15:00,56.9,49.4,29.92,West,270,12.0,16.0,76,0.00,,,0.00,909,Wunderground v.1.15,2013-04-24 21:15:00,
2013-04-24 14:20:00,57.0,49.5,29.92,WSW,255,13.0,13.0,76,0.00,,,0.00,905,Wunderground v.1.15,2013-04-24 21:20:00,
2013-04-24 14:30:00,57.7,50.2,29.92,WSW,255,10.0,10.0,76,0.00,,,0.00,895,Wunderground v.1.15,2013-04-24 21:30:00,
2013-04-24 14:35:00,57.7,49.8,29.92,WSW,255,10.0,10.0,75,0.00,,,0.00,888,Wunderground v.1.15,2013-04-24 21:35:00,
2013-04-24 14:45:00,57.5,50.0,29.92,WNW,286,12.0,16.0,76,0.00,,,0.00,877,Wunderground v.1.15,2013-04-24 21:45:00,
2013-04-24 14:50:00,57.5,50.0,29.92,WSW,252,11.0,12.0,76,0.00,,,0.00,868,Wunderground v.1.15,2013-04-24 21:50:00,
2013-04-24 15:00:00,57.3,49.8,29.92,WSW,245,12.0,12.0,76,0.00,,,0.00,853,Wunderground v.1.15,2013-04-24 22:00:00,
2013-04-24 15:05:00,56.8,50.0,29.92,WSW,258,13.0,15.0,78,0.00,,,0.00,846,Wunderground v.1.15,2013-04-24 22:05:00,
2013-04-24 15:15:00,57.6,50.4,29.91,WNW,291,11.0,13.0,77,0.00,,,0.00,830,Wunderground v.1.15,2013-04-24 22:15:00,
2013-04-24 15:25:00,57.4,50.2,29.91,West,266,11.0,11.0,77,0.00,,,0.00,809,Wunderground v.1.15,2013-04-24 22:25:00,
2013-04-24 15:30:00,57.6,50.4,29.91,WSW,257,12.0,12.0,77,0.00,,,0.00,800,Wunderground v.1.15,2013-04-24 22:30:00,
2013-04-24 15:40:00,57.1,50.3,29.91,West,259,14.0,14.0,78,0.00,,,0.00,775,Wunderground v.1.15,2013-04-24 22:40:00,
2013-04-24 15:50:00,57.2,50.7,29.91,SSW,213,13.0,13.0,79,0.00,,,0.00,756,Wunderground v.1.15,2013-04-24 22:50:00,
2013-04-24 15:55:00,57.1,50.6,29.91,SSW,213,13.0,13.0,79,0.00,,,0.00,744,Wunderground v.1.15,2013-04-24 22:55:00,
2013-04-24 16:05:00,57.0,50.5,29.91,SSW,213,14.0,19.0,79,0.00,,,0.00,717,Wunderground v.1.15,2013-04-24 23:05:00,
2013-04-24 16:10:00,57.1,50.6,29.90,WSW,251,14.0,14.0,79,0.00,,,0.00,707,Wunderground v.1.15,2013-04-24 23:10:00,
2013-04-24 16:20:00,57.2,50.4,29.90,West,259,13.0,13.0,78,0.00,,,0.00,682,Wunderground v.1.15,2013-04-24 23:20:00,
2013-04-24 16:25:00,57.0,50.9,29.90,West,276,13.0,13.0,80,0.00,,,0.00,668,Wunderground v.1.15,2013-04-24 23:25:00,
2013-04-24 16:35:00,57.3,50.5,29.90,WSW,249,12.0,15.0,78,0.00,,,0.00,638,Wunderground v.1.15,2013-04-24 23:35:00,
2013-04-24 16:45:00,57.1,50.6,29.90,West,272,13.0,19.0,79,0.00,,,0.00,606,Wunderground v.1.15,2013-04-24 23:45:00,
2013-04-24 16:50:00,56.8,50.4,29.90,West,268,13.0,13.0,79,0.00,,,0.00,591,Wunderground v.1.15,2013-04-24 23:50:00,
2013-04-24 17:00:00,57.5,50.7,29.90,West,274,11.0,11.0,78,0.00,,,0.00,564,Wunderground v.1.15,2013-04-25 00:00:00,
2013-04-24 17:05:00,57.5,51.0,29.90,WNW,282,12.0,14.0,79,0.00,,,0.00,545,Wunderground v.1.15,2013-04-25 00:05:00,
2013-04-24 17:15:00,57.1,50.6,29.90,West,267,13.0,13.0,79,0.00,,,0.00,513,Wunderground v.1.15,2013-04-25 00:15:00,
2013-04-24 17:20:00,57.1,51.0,29.90,SSW,213,14.0,16.0,80,0.00,,,0.00,496,Wunderground v.1.15,2013-04-25 00:20:00,
2013-04-24 17:30:00,57.0,50.5,29.90,WSW,247,14.0,14.0,79,0.00,,,0.00,466,Wunderground v.1.15,2013-04-25 00:30:00,
2013-04-24 17:35:00,57.0,50.9,29.91,West,268,14.0,14.0,80,0.00,,,0.00,448,Wunderground v.1.15,2013-04-25 00:35:00,
2013-04-24 17:45:00,56.9,50.8,29.91,WNW,299,14.0,15.0,80,0.00,,,0.00,411,Wunderground v.1.15,2013-04-25 00:45:00,
2013-04-24 17:50:00,56.7,50.6,29.91,West,269,14.0,17.0,80,0.00,,,0.00,394,Wunderground v.1.15,2013-04-25 00:50:00,
2013-04-24 18:00:00,56.6,50.5,29.91,West,278,14.0,14.0,80,0.00,,,0.00,353,Wunderground v.1.15,2013-04-25 01:00:00,
2013-04-24 18:10:00,56.8,50.7,29.92,SSW,213,13.0,15.0,80,0.00,,,0.00,320,Wunderground v.1.15,2013-04-25 01:10:00,
2013-04-24 18:15:00,57.0,50.9,29.92,WSW,255,12.0,15.0,80,0.00,,,0.00,302,Wunderground v.1.15,2013-04-25 01:15:00,
2013-04-24 18:20:00,56.8,50.7,29.92,WSW,255,12.0,12.0,80,0.00,,,0.00,283,Wunderground v.1.15,2013-04-25 01:20:00,
2013-04-24 18:30:00,56.8,50.7,29.92,West,276,11.0,17.0,80,0.00,,,0.00,248,Wunderground v.1.15,2013-04-25 01:30:00,
2013-04-24 18:40:00,56.2,50.8,29.92,WSW,257,13.0,13.0,82,0.00,,,0.00,211,Wunderground v.1.15,2013-04-25 01:40:00,
2013-04-24 18:45:00,56.1,50.7,29.92,WNW,292,12.0,13.0,82,0.00,,,0.00,190,Wunderground v.1.15,2013-04-25 01:45:00,
2013-04-24 18:50:00,55.9,50.8,29.92,SSW,213,13.0,15.0,83,0.00,,,0.00,169,Wunderground v.1.15,2013-04-25 01:50:00,
2013-04-24 19:00:00,56.3,50.9,29.93,West,268,10.0,10.0,82,0.00,,,0.00,128,Wunderground v.1.15,2013-04-25 02:00:00,
2013-04-24 19:10:00,55.9,50.5,29.93,West,272,10.0,11.0,82,0.00,,,0.00,97,Wunderground v.1.15,2013-04-25 02:10:00,
2013-04-24 19:15:00,55.6,50.5,29.93,West,279,12.0,12.0,83,0.00,,,0.00,79,Wunderground v.1.15,2013-04-25 02:15:00,
2013-04-24 19:25:00,55.6,50.5,29.94,WNW,288,11.0,11.0,83,0.00,,,0.00,39,Wunderground v.1.15,2013-04-25 02:25:00,
2013-04-24 19:30:00,55.5,50.4,29.94,WNW,303,11.0,13.0,83,0.00,,,0.00,37,Wunderground v.1.15,2013-04-25 02:30:00,
2013-04-24 19:40:00,55.1,50.4,29.94,WNW,288,11.0,12.0,84,0.00,,,0.00,16,Wunderground v.1.15,2013-04-25 02:40:00,
2013-04-24 19:45:00,55.1,50.4,29.94,SSW,213,11.0,12.0,84,0.00,,,0.00,11,Wunderground v.1.15,2013-04-25 02:45:00,
2013-04-24 19:55:00,55.0,50.6,29.94,NW,306,10.0,13.0,85,0.00,,,0.00,0,Wunderground v.1.15,2013-04-25 02:55:00,
2013-04-24 20:00:00,54.9,50.5,29.95,West,280,10.0,15.0,85,0.00,,,0.00,0,Wunderground v.1.15,2013-04-25 03:00:00,
2013-04-24 20:05:00,54.8,50.4,29.95,West,274,11.0,15.0,85,0.00,,,0.00,0,Wunderground v.1.15,2013-04-25 03:05:00,
2013-04-24 20:15:00,54.7,50.3,29.95,West,279,11.0,13.0,85,0.00,,,0.00,0,Wunderground v.1.15,2013-04-25 03:15:00,
2013-04-24 20:20:00,54.8,50.4,29.95,West,275,11.0,11.0,85,0.00,,,0.00,0,Wunderground v.1.15,2013-04-25 03:20:00,
2013-04-24 20:25:00,54.9,50.5,29.95,NW,304,9.0,11.0,85,0.00,,,0.00,0,Wunderground v.1.15,2013-04-25 03:25:00,
2013-04-24 20:35:00,54.9,50.5,29.95,West,278,9.0,10.0,85,0.00,,,0.00,0,Wunderground v.1.15,2013-04-25 03:35:00,
2013-04-24 20:45:00,54.9,50.5,29.96,NW,308,8.0,11.0,85,0.00,,,0.00,0,Wunderground v.1.15,2013-04-25 03:45:00,
2013-04-24 20:50:00,54.8,50.4,29.96,WNW,282,7.0,8.0,85,0.00,,,0.00,0,Wunderground v.1.15,2013-04-25 03:50:00,
2013-04-24 20:55:00,54.8,50.4,29.97,WNW,282,8.0,10.0,85,0.00,,,0.00,0,Wunderground v.1.15,2013-04-25 03:55:00,
2013-04-24 21:05:00,54.9,50.5,29.97,WNW,293,7.0,7.0,85,0.00,,,0.00,0,Wunderground v.1.15,2013-04-25 04:05:00,
2013-04-24 21:15:00,54.8,50.4,29.97,WNW,296,8.0,8.0,85,0.00,,,0.00,0,Wunderground v.1.15,2013-04-25 04:15:00,
2013-04-24 21:25:00,54.9,50.5,29.97,West,278,7.0,9.0,85,0.00,,,0.00,0,Wunderground v.1.15,2013-04-25 04:25:00,
2013-04-24 21:30:00,54.9,50.2,29.97,WNW,299,7.0,7.0,84,0.00,,,0.00,0,Wunderground v.1.15,2013-04-25 04:30:00,
2013-04-24 21:40:00,55.1,50.4,29.97,West,263,6.0,8.0,84,0.00,,,0.00,0,Wunderground v.1.15,2013-04-25 04:40:00,
2013-04-24 21:45:00,55.2,50.4,29.97,West,270,7.0,8.0,84,0.00,,,0.00,0,Wunderground v.1.15,2013-04-25 04:45:00,
2013-04-24 21:55:00,55.0,50.3,29.98,WNW,295,8.0,15.0,84,0.00,,,0.00,0,Wunderground v.1.15,2013-04-25 04:55:00,
2013-04-24 22:05:00,55.0,50.3,29.98,WNW,295,7.0,9.0,84,0.00,,,0.00,0,Wunderground v.1.15,2013-04-25 05:05:00,
2013-04-24 22:10:00,54.9,50.2,29.98,WNW,292,6.0,6.0,84,0.00,,,0.00,0,Wunderground v.1.15,2013-04-25 05:10:00,
2013-04-24 22:15:00,54.9,50.2,29.98,West,280,6.0,6.0,84,0.00,,,0.00,0,Wunderground v.1.15,2013-04-25 05:15:00,
2013-04-24 22:20:00,55.0,50.3,29.99,NW,304,6.0,6.0,84,0.00,,,0.00,0,Wunderground v.1.15,2013-04-25 05:20:00,
2013-04-24 22:25:00,54.9,50.2,29.99,WNW,301,5.0,6.0,84,0.00,,,0.00,0,Wunderground v.1.15,2013-04-25 05:25:00,
2013-04-24 22:35:00,54.8,50.4,29.99,WNW,299,5.0,9.0,85,0.00,,,0.00,0,Wunderground v.1.15,2013-04-25 05:35:00,
2013-04-24 22:40:00,54.9,50.5,29.99,WNW,289,5.0,5.0,85,0.00,,,0.00,0,Wunderground v.1.15,2013-04-25 05:40:00,
2013-04-24 22:50:00,54.9,50.5,29.99,WNW,287,4.0,4.0,85,0.00,,,0.00,0,Wunderground v.1.15,2013-04-25 05:50:00,
2013-04-24 22:55:00,55.0,50.6,29.99,WNW,284,3.0,4.0,85,0.00,,,0.00,0,Wunderground v.1.15,2013-04-25 05:55:00,
2013-04-24 23:05:00,55.0,50.3,29.99,WNW,287,2.0,3.0,84,0.00,,,0.00,0,Wunderground v.1.15,2013-04-25 06:05:00,
2013-04-24 23:10:00,55.0,50.3,29.99,WNW,287,2.0,2.0,84,0.00,,,0.00,0,Wunderground v.1.15,2013-04-25 06:10:00,
2013-04-24 23:20:00,54.8,50.1,29.99,WNW,287,2.0,2.0,84,0.00,,,0.00,0,Wunderground v.1.15,2013-04-25 06:20:00,
2013-04-24 23:30:00,54.8,50.4,29.99,West,270,1.0,2.0,85,0.00,,,0.00,0,Wunderground v.1.15,2013-04-25 06:30:00,
2013-04-24 23:35:00,54.9,50.5,29.99,WSW,251,3.0,3.0,85,0.00,,,0.00,0,Wunderground v.1.15,2013-04-25 06:35:00,
2013-04-24 23:40:00,54.9,50.5,29.99,WSW,248,3.0,4.0,85,0.00,,,0.00,0,Wunderground v.1.15,2013-04-25 06:40:00,
2013-04-24 23:50:00,55.0,50.6,29.99,SW,218,7.0,7.0,85,0.00,,,0.00,0,Wunderground v.1.15,2013-04-25 06:50:00,